sensor_id;sensor_type;location;lat;lon;timestamp;temperature;humidity
20881;DHT22;10600;53.096;8.802;2023-05-29T00:00:10;9.60;99.90
20881;DHT22;10600;53.096;8.802;2023-05-29T00:01:12;9.60;99.90
20881;DHT22;10600;53.096;8.802;2023-05-29T00:02:13;9.60;99.90
20881;DHT22;10600;53.096;8.802;2023-05-29T00:03:13;9.60;99.90
20881;DHT22;10600;53.096;8.802;2023-05-29T00:04:14;9.60;99.90
20881;DHT22;10600;53.096;8.802;2023-05-29T00:05:15;9.60;99.90
20881;DHT22;10600;53.096;8.802;2023-05-29T00:06:15;9.60;99.90
20881;DHT22;10600;53.096;8.802;2023-05-29T00:07:16;9.50;99.90
20881;DHT22;10600;53.096;8.802;2023-05-29T00:08:17;9.50;99.90
20881;DHT22;10600;53.096;8.802;2023-05-29T00:09:17;9.50;99.90
20881;DHT22;10600;53.096;8.802;2023-05-29T00:10:18;9.50;99.90
20881;DHT22;10600;53.096;8.802;2023-05-29T00:11:19;9.50;99.90
20881;DHT22;10600;53.096;8.802;2023-05-29T00:12:20;9.50;99.90
20881;DHT22;10600;53.096;8.802;2023-05-29T00:13:22;9.50;99.90
20881;DHT22;10600;53.096;8.802;2023-05-29T00:14:22;9.50;99.90
20881;DHT22;10600;53.096;8.802;2023-05-29T00:15:24;9.50;99.90
20881;DHT22;10600;53.096;8.802;2023-05-29T00:16:24;9.50;99.90
20881;DHT22;10600;53.096;8.802;2023-05-29T00:17:25;9.50;99.90
20881;DHT22;10600;53.096;8.802;2023-05-29T00:18:26;9.50;99.90
20881;DHT22;10600;53.096;8.802;2023-05-29T00:19:27;9.50;99.90
20881;DHT22;10600;53.096;8.802;2023-05-29T00:20:28;9.40;99.90
20881;DHT22;10600;53.096;8.802;2023-05-29T00:21:29;9.50;99.90
20881;DHT22;10600;53.096;8.802;2023-05-29T00:22:30;9.50;99.90
20881;DHT22;10600;53.096;8.802;2023-05-29T00:23:31;9.40;99.90
20881;DHT22;10600;53.096;8.802;2023-05-29T00:24:32;9.40;99.90
20881;DHT22;10600;53.096;8.802;2023-05-29T00:25:32;9.40;99.90
20881;DHT22;10600;53.096;8.802;2023-05-29T00:26:33;9.40;99.90
20881;DHT22;10600;53.096;8.802;2023-05-29T00:27:34;9.40;99.90
20881;DHT22;10600;53.096;8.802;2023-05-29T00:28:35;9.40;99.90
20881;DHT22;10600;53.096;8.802;2023-05-29T00:29:37;9.40;99.90
20881;DHT22;10600;53.096;8.802;2023-05-29T00:30:39;9.40;99.90
20881;DHT22;10600;53.096;8.802;2023-05-29T00:31:39;9.40;99.90
20881;DHT22;10600;53.096;8.802;2023-05-29T00:32:40;9.40;99.90
20881;DHT22;10600;53.096;8.802;2023-05-29T00:33:41;9.40;99.90
20881;DHT22;10600;53.096;8.802;2023-05-29T00:34:41;9.40;99.90
20881;DHT22;10600;53.096;8.802;2023-05-29T00:35:42;9.40;99.90
20881;DHT22;10600;53.096;8.802;2023-05-29T00:36:43;9.40;99.90
20881;DHT22;10600;53.096;8.802;2023-05-29T00:37:43;9.30;99.90
20881;DHT22;10600;53.096;8.802;2023-05-29T00:38:44;9.30;99.90
20881;DHT22;10600;53.096;8.802;2023-05-29T00:39:44;9.30;99.90
20881;DHT22;10600;53.096;8.802;2023-05-29T00:40:45;9.30;99.90
20881;DHT22;10600;53.096;8.802;2023-05-29T00:41:46;9.30;99.90
20881;DHT22;10600;53.096;8.802;2023-05-29T00:42:51;9.30;99.90
20881;DHT22;10600;53.096;8.802;2023-05-29T00:43:51;9.30;99.90
20881;DHT22;10600;53.096;8.802;2023-05-29T00:44:52;9.30;99.90
20881;DHT22;10600;53.096;8.802;2023-05-29T00:45:53;9.30;99.90
20881;DHT22;10600;53.096;8.802;2023-05-29T00:46:53;9.30;99.90
20881;DHT22;10600;53.096;8.802;2023-05-29T00:47:54;9.30;99.90
20881;DHT22;10600;53.096;8.802;2023-05-29T00:48:55;9.30;99.90
20881;DHT22;10600;53.096;8.802;2023-05-29T00:49:56;9.30;99.90
20881;DHT22;10600;53.096;8.802;2023-05-29T00:50:57;9.30;99.90
20881;DHT22;10600;53.096;8.802;2023-05-29T00:51:58;9.20;99.90
20881;DHT22;10600;53.096;8.802;2023-05-29T00:53:00;9.30;99.90
20881;DHT22;10600;53.096;8.802;2023-05-29T00:54:02;9.20;99.90
20881;DHT22;10600;53.096;8.802;2023-05-29T00:55:03;9.30;99.90
20881;DHT22;10600;53.096;8.802;2023-05-29T00:56:05;9.30;99.90
20881;DHT22;10600;53.096;8.802;2023-05-29T00:57:05;9.20;99.90
20881;DHT22;10600;53.096;8.802;2023-05-29T00:58:06;9.20;99.90
20881;DHT22;10600;53.096;8.802;2023-05-29T00:59:07;9.30;99.90
20881;DHT22;10600;53.096;8.802;2023-05-29T01:00:08;9.20;99.90
20881;DHT22;10600;53.096;8.802;2023-05-29T01:01:14;9.20;99.90
20881;DHT22;10600;53.096;8.802;2023-05-29T01:02:16;9.20;99.90
20881;DHT22;10600;53.096;8.802;2023-05-29T01:03:17;9.20;99.90
20881;DHT22;10600;53.096;8.802;2023-05-29T01:04:20;9.20;99.90
20881;DHT22;10600;53.096;8.802;2023-05-29T01:05:21;9.20;99.90
20881;DHT22;10600;53.096;8.802;2023-05-29T01:06:23;9.20;99.90
20881;DHT22;10600;53.096;8.802;2023-05-29T01:07:23;9.20;99.90
20881;DHT22;10600;53.096;8.802;2023-05-29T01:08:25;9.20;99.90
20881;DHT22;10600;53.096;8.802;2023-05-29T01:09:25;9.20;99.90
20881;DHT22;10600;53.096;8.802;2023-05-29T01:10:26;9.20;99.90
20881;DHT22;10600;53.096;8.802;2023-05-29T01:11:54;9.20;99.90
20881;DHT22;10600;53.096;8.802;2023-05-29T01:13:04;9.20;99.90
20881;DHT22;10600;53.096;8.802;2023-05-29T01:14:09;9.10;99.90
20881;DHT22;10600;53.096;8.802;2023-05-29T01:15:46;9.20;99.90
20881;DHT22;10600;53.096;8.802;2023-05-29T01:17:06;9.10;99.90
20881;DHT22;10600;53.096;8.802;2023-05-29T01:20:10;9.10;99.90
20881;DHT22;10600;53.096;8.802;2023-05-29T01:21:39;9.10;99.90
20881;DHT22;10600;53.096;8.802;2023-05-29T01:24:15;9.10;99.90
20881;DHT22;10600;53.096;8.802;2023-05-29T01:27:54;9.00;99.90
20881;DHT22;10600;53.096;8.802;2023-05-29T01:28:57;9.00;99.90
20881;DHT22;10600;53.096;8.802;2023-05-29T01:30:02;9.00;99.90
20881;DHT22;10600;53.096;8.802;2023-05-29T01:31:04;9.00;99.90
20881;DHT22;10600;53.096;8.802;2023-05-29T01:32:06;9.00;99.90
20881;DHT22;10600;53.096;8.802;2023-05-29T01:33:07;9.00;99.90
20881;DHT22;10600;53.096;8.802;2023-05-29T01:34:08;9.00;99.90
20881;DHT22;10600;53.096;8.802;2023-05-29T01:35:08;9.00;99.90
20881;DHT22;10600;53.096;8.802;2023-05-29T01:36:09;9.00;99.90
20881;DHT22;10600;53.096;8.802;2023-05-29T01:37:11;8.90;99.90
20881;DHT22;10600;53.096;8.802;2023-05-29T01:38:12;9.00;99.90
20881;DHT22;10600;53.096;8.802;2023-05-29T01:39:13;8.90;99.90
20881;DHT22;10600;53.096;8.802;2023-05-29T01:40:14;8.90;99.90
20881;DHT22;10600;53.096;8.802;2023-05-29T01:41:16;8.90;99.90
20881;DHT22;10600;53.096;8.802;2023-05-29T01:42:17;8.90;99.90
20881;DHT22;10600;53.096;8.802;2023-05-29T01:43:18;8.90;99.90
20881;DHT22;10600;53.096;8.802;2023-05-29T01:44:20;8.90;99.90
20881;DHT22;10600;53.096;8.802;2023-05-29T01:45:21;8.90;99.90
20881;DHT22;10600;53.096;8.802;2023-05-29T01:46:22;8.80;99.90
20881;DHT22;10600;53.096;8.802;2023-05-29T01:47:26;8.80;99.90
20881;DHT22;10600;53.096;8.802;2023-05-29T01:48:27;8.80;99.90
20881;DHT22;10600;53.096;8.802;2023-05-29T01:49:29;8.80;99.90
20881;DHT22;10600;53.096;8.802;2023-05-29T01:50:30;8.70;99.90
20881;DHT22;10600;53.096;8.802;2023-05-29T01:51:31;8.70;99.90
20881;DHT22;10600;53.096;8.802;2023-05-29T01:52:32;8.70;99.90
20881;DHT22;10600;53.096;8.802;2023-05-29T01:53:33;8.70;99.90
20881;DHT22;10600;53.096;8.802;2023-05-29T01:54:34;8.70;99.90
20881;DHT22;10600;53.096;8.802;2023-05-29T01:55:34;8.70;99.90
20881;DHT22;10600;53.096;8.802;2023-05-29T01:56:35;8.70;99.90
20881;DHT22;10600;53.096;8.802;2023-05-29T01:57:37;8.60;99.90
20881;DHT22;10600;53.096;8.802;2023-05-29T01:58:39;8.60;99.90
20881;DHT22;10600;53.096;8.802;2023-05-29T01:59:40;8.60;99.90
20881;DHT22;10600;53.096;8.802;2023-05-29T02:00:42;8.60;99.90
20881;DHT22;10600;53.096;8.802;2023-05-29T02:01:42;8.60;99.90
20881;DHT22;10600;53.096;8.802;2023-05-29T02:02:43;8.60;99.90
20881;DHT22;10600;53.096;8.802;2023-05-29T02:03:43;8.60;99.90
20881;DHT22;10600;53.096;8.802;2023-05-29T02:04:44;8.60;99.90
20881;DHT22;10600;53.096;8.802;2023-05-29T02:05:45;8.60;99.90
20881;DHT22;10600;53.096;8.802;2023-05-29T02:06:46;8.50;99.90
20881;DHT22;10600;53.096;8.802;2023-05-29T02:07:46;8.50;99.90
20881;DHT22;10600;53.096;8.802;2023-05-29T02:08:47;8.60;99.90
20881;DHT22;10600;53.096;8.802;2023-05-29T02:09:48;8.60;99.90
20881;DHT22;10600;53.096;8.802;2023-05-29T02:10:48;8.50;99.90
20881;DHT22;10600;53.096;8.802;2023-05-29T02:11:49;8.60;99.90
20881;DHT22;10600;53.096;8.802;2023-05-29T02:12:50;8.50;99.90
20881;DHT22;10600;53.096;8.802;2023-05-29T02:13:51;8.60;99.90
20881;DHT22;10600;53.096;8.802;2023-05-29T02:14:51;8.50;99.90
20881;DHT22;10600;53.096;8.802;2023-05-29T02:15:52;8.60;99.90
20881;DHT22;10600;53.096;8.802;2023-05-29T02:16:52;8.50;99.90
20881;DHT22;10600;53.096;8.802;2023-05-29T02:17:53;8.50;99.90
20881;DHT22;10600;53.096;8.802;2023-05-29T02:18:54;8.50;99.90
20881;DHT22;10600;53.096;8.802;2023-05-29T02:19:54;8.50;99.90
20881;DHT22;10600;53.096;8.802;2023-05-29T02:20:55;8.50;99.90
20881;DHT22;10600;53.096;8.802;2023-05-29T02:21:56;8.50;99.90
20881;DHT22;10600;53.096;8.802;2023-05-29T02:22:56;8.50;99.90
20881;DHT22;10600;53.096;8.802;2023-05-29T02:23:57;8.50;99.90
20881;DHT22;10600;53.096;8.802;2023-05-29T02:24:57;8.50;99.90
20881;DHT22;10600;53.096;8.802;2023-05-29T02:25:58;8.50;99.90
20881;DHT22;10600;53.096;8.802;2023-05-29T02:26:59;8.50;99.90
20881;DHT22;10600;53.096;8.802;2023-05-29T02:27:59;8.50;99.90
20881;DHT22;10600;53.096;8.802;2023-05-29T02:29:00;8.50;99.90
20881;DHT22;10600;53.096;8.802;2023-05-29T02:30:01;8.50;99.90
20881;DHT22;10600;53.096;8.802;2023-05-29T02:31:02;8.50;99.90
20881;DHT22;10600;53.096;8.802;2023-05-29T02:32:03;8.50;99.90
20881;DHT22;10600;53.096;8.802;2023-05-29T02:33:05;8.50;99.90
20881;DHT22;10600;53.096;8.802;2023-05-29T02:34:06;8.50;99.90
20881;DHT22;10600;53.096;8.802;2023-05-29T02:35:07;8.40;99.90
20881;DHT22;10600;53.096;8.802;2023-05-29T02:36:08;8.50;99.90
20881;DHT22;10600;53.096;8.802;2023-05-29T02:37:10;8.50;99.90
20881;DHT22;10600;53.096;8.802;2023-05-29T02:38:11;8.50;99.90
20881;DHT22;10600;53.096;8.802;2023-05-29T02:39:12;8.40;99.90
20881;DHT22;10600;53.096;8.802;2023-05-29T02:40:13;8.40;99.90
20881;DHT22;10600;53.096;8.802;2023-05-29T02:41:13;8.50;99.90
20881;DHT22;10600;53.096;8.802;2023-05-29T02:42:14;8.40;99.90
20881;DHT22;10600;53.096;8.802;2023-05-29T02:43:15;8.40;99.90
20881;DHT22;10600;53.096;8.802;2023-05-29T02:44:16;8.40;99.90
20881;DHT22;10600;53.096;8.802;2023-05-29T02:45:17;8.50;99.90
20881;DHT22;10600;53.096;8.802;2023-05-29T02:46:17;8.40;99.90
20881;DHT22;10600;53.096;8.802;2023-05-29T02:47:18;8.40;99.90
20881;DHT22;10600;53.096;8.802;2023-05-29T02:48:19;8.40;99.90
20881;DHT22;10600;53.096;8.802;2023-05-29T02:49:20;8.40;99.90
20881;DHT22;10600;53.096;8.802;2023-05-29T02:50:21;8.40;99.90
20881;DHT22;10600;53.096;8.802;2023-05-29T02:51:21;8.40;99.90
20881;DHT22;10600;53.096;8.802;2023-05-29T02:52:22;8.40;99.90
20881;DHT22;10600;53.096;8.802;2023-05-29T02:53:23;8.40;99.90
20881;DHT22;10600;53.096;8.802;2023-05-29T02:54:24;8.40;99.90
20881;DHT22;10600;53.096;8.802;2023-05-29T02:55:25;8.30;99.90
20881;DHT22;10600;53.096;8.802;2023-05-29T02:56:26;8.30;99.90
20881;DHT22;10600;53.096;8.802;2023-05-29T02:57:27;8.30;99.90
20881;DHT22;10600;53.096;8.802;2023-05-29T02:58:27;8.30;99.90
20881;DHT22;10600;53.096;8.802;2023-05-29T02:59:28;8.30;99.90
20881;DHT22;10600;53.096;8.802;2023-05-29T03:00:29;8.30;99.90
20881;DHT22;10600;53.096;8.802;2023-05-29T03:01:30;8.30;99.90
20881;DHT22;10600;53.096;8.802;2023-05-29T03:02:30;8.30;99.90
20881;DHT22;10600;53.096;8.802;2023-05-29T03:03:31;8.30;99.90
20881;DHT22;10600;53.096;8.802;2023-05-29T03:04:32;8.30;99.90
20881;DHT22;10600;53.096;8.802;2023-05-29T03:05:32;8.20;99.90
20881;DHT22;10600;53.096;8.802;2023-05-29T03:06:33;8.20;99.90
20881;DHT22;10600;53.096;8.802;2023-05-29T03:07:34;8.20;99.90
20881;DHT22;10600;53.096;8.802;2023-05-29T03:08:35;8.20;99.90
20881;DHT22;10600;53.096;8.802;2023-05-29T03:09:36;8.20;99.90
20881;DHT22;10600;53.096;8.802;2023-05-29T03:10:36;8.20;99.90
20881;DHT22;10600;53.096;8.802;2023-05-29T03:11:37;8.20;99.90
20881;DHT22;10600;53.096;8.802;2023-05-29T03:12:38;8.20;99.90
20881;DHT22;10600;53.096;8.802;2023-05-29T03:13:39;8.20;99.90
20881;DHT22;10600;53.096;8.802;2023-05-29T03:14:40;8.10;99.90
20881;DHT22;10600;53.096;8.802;2023-05-29T03:15:41;8.20;99.90
20881;DHT22;10600;53.096;8.802;2023-05-29T03:16:43;8.10;99.90
20881;DHT22;10600;53.096;8.802;2023-05-29T03:17:43;8.10;99.90
20881;DHT22;10600;53.096;8.802;2023-05-29T03:18:44;8.10;99.90
20881;DHT22;10600;53.096;8.802;2023-05-29T03:19:45;8.10;99.90
20881;DHT22;10600;53.096;8.802;2023-05-29T03:20:45;8.10;99.90
20881;DHT22;10600;53.096;8.802;2023-05-29T03:21:46;8.10;99.90
20881;DHT22;10600;53.096;8.802;2023-05-29T03:22:47;8.10;99.90
20881;DHT22;10600;53.096;8.802;2023-05-29T03:23:47;8.10;99.90
20881;DHT22;10600;53.096;8.802;2023-05-29T03:24:48;8.10;99.90
20881;DHT22;10600;53.096;8.802;2023-05-29T03:25:48;8.10;99.90
20881;DHT22;10600;53.096;8.802;2023-05-29T03:26:49;8.10;99.90
20881;DHT22;10600;53.096;8.802;2023-05-29T03:27:50;8.10;99.90
20881;DHT22;10600;53.096;8.802;2023-05-29T03:28:51;8.10;99.90
20881;DHT22;10600;53.096;8.802;2023-05-29T03:29:52;8.00;99.90
20881;DHT22;10600;53.096;8.802;2023-05-29T03:30:53;8.00;99.90
20881;DHT22;10600;53.096;8.802;2023-05-29T03:31:53;8.00;99.90
20881;DHT22;10600;53.096;8.802;2023-05-29T03:32:54;8.00;99.90
20881;DHT22;10600;53.096;8.802;2023-05-29T03:33:54;8.00;99.90
20881;DHT22;10600;53.096;8.802;2023-05-29T03:34:55;8.00;99.90
20881;DHT22;10600;53.096;8.802;2023-05-29T03:35:57;8.00;99.90
20881;DHT22;10600;53.096;8.802;2023-05-29T03:36:58;8.00;99.90
20881;DHT22;10600;53.096;8.802;2023-05-29T03:37:59;8.00;99.90
20881;DHT22;10600;53.096;8.802;2023-05-29T03:39:00;8.00;99.90
20881;DHT22;10600;53.096;8.802;2023-05-29T03:40:01;8.00;99.90
20881;DHT22;10600;53.096;8.802;2023-05-29T03:41:01;8.00;99.90
20881;DHT22;10600;53.096;8.802;2023-05-29T03:42:02;8.00;99.90
20881;DHT22;10600;53.096;8.802;2023-05-29T03:43:03;8.00;99.90
20881;DHT22;10600;53.096;8.802;2023-05-29T03:44:04;8.00;99.90
20881;DHT22;10600;53.096;8.802;2023-05-29T03:45:05;8.00;99.90
20881;DHT22;10600;53.096;8.802;2023-05-29T03:46:06;8.00;99.90
20881;DHT22;10600;53.096;8.802;2023-05-29T03:47:06;8.00;99.90
20881;DHT22;10600;53.096;8.802;2023-05-29T03:48:09;8.00;99.90
20881;DHT22;10600;53.096;8.802;2023-05-29T03:49:09;8.00;99.90
20881;DHT22;10600;53.096;8.802;2023-05-29T03:50:10;8.00;99.90
20881;DHT22;10600;53.096;8.802;2023-05-29T03:51:14;8.00;99.90
20881;DHT22;10600;53.096;8.802;2023-05-29T03:52:15;8.00;99.90
20881;DHT22;10600;53.096;8.802;2023-05-29T03:53:16;8.10;99.90
20881;DHT22;10600;53.096;8.802;2023-05-29T03:54:17;8.10;99.90
20881;DHT22;10600;53.096;8.802;2023-05-29T03:55:17;8.10;99.90
20881;DHT22;10600;53.096;8.802;2023-05-29T03:56:18;8.10;99.90
20881;DHT22;10600;53.096;8.802;2023-05-29T03:57:18;8.10;99.90
20881;DHT22;10600;53.096;8.802;2023-05-29T03:58:19;8.20;99.90
20881;DHT22;10600;53.096;8.802;2023-05-29T03:59:20;8.20;99.90
20881;DHT22;10600;53.096;8.802;2023-05-29T04:00:20;8.20;99.90
20881;DHT22;10600;53.096;8.802;2023-05-29T04:01:22;8.30;99.90
20881;DHT22;10600;53.096;8.802;2023-05-29T04:02:23;8.30;99.90
20881;DHT22;10600;53.096;8.802;2023-05-29T04:03:23;8.30;99.90
20881;DHT22;10600;53.096;8.802;2023-05-29T04:04:24;8.30;99.90
20881;DHT22;10600;53.096;8.802;2023-05-29T04:05:25;8.30;99.90
20881;DHT22;10600;53.096;8.802;2023-05-29T04:06:26;8.40;99.90
20881;DHT22;10600;53.096;8.802;2023-05-29T04:07:27;8.40;99.90
20881;DHT22;10600;53.096;8.802;2023-05-29T04:08:27;8.40;99.90
20881;DHT22;10600;53.096;8.802;2023-05-29T04:09:28;8.50;99.90
20881;DHT22;10600;53.096;8.802;2023-05-29T04:10:28;8.50;99.90
20881;DHT22;10600;53.096;8.802;2023-05-29T04:11:29;8.50;99.90
20881;DHT22;10600;53.096;8.802;2023-05-29T04:12:30;8.50;99.90
20881;DHT22;10600;53.096;8.802;2023-05-29T04:13:31;8.50;99.90
20881;DHT22;10600;53.096;8.802;2023-05-29T04:14:32;8.60;99.90
20881;DHT22;10600;53.096;8.802;2023-05-29T04:15:33;8.60;99.90
20881;DHT22;10600;53.096;8.802;2023-05-29T04:16:33;8.60;99.90
20881;DHT22;10600;53.096;8.802;2023-05-29T04:17:34;8.70;99.90
20881;DHT22;10600;53.096;8.802;2023-05-29T04:18:34;8.70;99.90
20881;DHT22;10600;53.096;8.802;2023-05-29T04:19:35;8.70;99.90
20881;DHT22;10600;53.096;8.802;2023-05-29T04:20:36;8.70;99.90
20881;DHT22;10600;53.096;8.802;2023-05-29T04:21:36;8.70;99.90
20881;DHT22;10600;53.096;8.802;2023-05-29T04:22:37;8.80;99.90
20881;DHT22;10600;53.096;8.802;2023-05-29T04:23:38;8.70;99.90
20881;DHT22;10600;53.096;8.802;2023-05-29T04:24:39;8.80;99.90
20881;DHT22;10600;53.096;8.802;2023-05-29T04:25:40;8.80;99.90
20881;DHT22;10600;53.096;8.802;2023-05-29T04:26:41;8.80;99.90
20881;DHT22;10600;53.096;8.802;2023-05-29T04:27:41;8.80;99.90
20881;DHT22;10600;53.096;8.802;2023-05-29T04:28:42;8.80;99.90
20881;DHT22;10600;53.096;8.802;2023-05-29T04:29:43;8.90;99.90
20881;DHT22;10600;53.096;8.802;2023-05-29T04:30:44;8.90;99.90
20881;DHT22;10600;53.096;8.802;2023-05-29T04:31:45;8.90;99.90
20881;DHT22;10600;53.096;8.802;2023-05-29T04:32:47;9.00;99.90
20881;DHT22;10600;53.096;8.802;2023-05-29T04:33:48;9.00;99.90
20881;DHT22;10600;53.096;8.802;2023-05-29T04:34:49;9.00;99.90
20881;DHT22;10600;53.096;8.802;2023-05-29T04:35:52;9.00;99.90
20881;DHT22;10600;53.096;8.802;2023-05-29T04:36:52;9.10;99.90
20881;DHT22;10600;53.096;8.802;2023-05-29T04:37:53;9.10;99.90
20881;DHT22;10600;53.096;8.802;2023-05-29T04:38:54;9.10;99.90
20881;DHT22;10600;53.096;8.802;2023-05-29T04:39:55;9.10;99.90
20881;DHT22;10600;53.096;8.802;2023-05-29T04:40:57;9.20;99.90
20881;DHT22;10600;53.096;8.802;2023-05-29T04:41:58;9.20;99.90
20881;DHT22;10600;53.096;8.802;2023-05-29T04:43:00;9.20;99.90
20881;DHT22;10600;53.096;8.802;2023-05-29T04:44:02;9.20;99.90
20881;DHT22;10600;53.096;8.802;2023-05-29T04:45:04;9.20;99.90
20881;DHT22;10600;53.096;8.802;2023-05-29T04:46:05;9.30;99.90
20881;DHT22;10600;53.096;8.802;2023-05-29T04:47:07;9.30;99.90
20881;DHT22;10600;53.096;8.802;2023-05-29T04:48:08;9.30;99.90
20881;DHT22;10600;53.096;8.802;2023-05-29T04:49:09;9.30;99.90
20881;DHT22;10600;53.096;8.802;2023-05-29T04:50:14;9.30;99.90
20881;DHT22;10600;53.096;8.802;2023-05-29T04:51:15;9.40;99.90
20881;DHT22;10600;53.096;8.802;2023-05-29T04:52:17;9.40;99.90
20881;DHT22;10600;53.096;8.802;2023-05-29T04:53:17;9.40;99.90
20881;DHT22;10600;53.096;8.802;2023-05-29T04:54:18;9.40;99.90
20881;DHT22;10600;53.096;8.802;2023-05-29T04:55:20;9.40;99.90
20881;DHT22;10600;53.096;8.802;2023-05-29T04:56:21;9.50;99.90
20881;DHT22;10600;53.096;8.802;2023-05-29T04:57:22;9.50;99.90
20881;DHT22;10600;53.096;8.802;2023-05-29T04:58:25;9.50;99.90
20881;DHT22;10600;53.096;8.802;2023-05-29T04:59:26;9.60;99.90
20881;DHT22;10600;53.096;8.802;2023-05-29T05:00:27;9.60;99.90
20881;DHT22;10600;53.096;8.802;2023-05-29T05:01:27;9.60;99.90
20881;DHT22;10600;53.096;8.802;2023-05-29T05:02:29;9.60;99.90
20881;DHT22;10600;53.096;8.802;2023-05-29T05:03:30;9.70;99.90
20881;DHT22;10600;53.096;8.802;2023-05-29T05:04:31;9.70;99.90
20881;DHT22;10600;53.096;8.802;2023-05-29T05:05:32;9.70;99.90
20881;DHT22;10600;53.096;8.802;2023-05-29T05:06:33;9.80;99.90
20881;DHT22;10600;53.096;8.802;2023-05-29T05:07:34;9.80;99.90
20881;DHT22;10600;53.096;8.802;2023-05-29T05:08:35;9.90;99.90
20881;DHT22;10600;53.096;8.802;2023-05-29T05:09:36;9.80;99.90
20881;DHT22;10600;53.096;8.802;2023-05-29T05:10:37;9.90;99.90
20881;DHT22;10600;53.096;8.802;2023-05-29T05:11:37;9.90;99.90
20881;DHT22;10600;53.096;8.802;2023-05-29T05:12:38;9.90;99.90
20881;DHT22;10600;53.096;8.802;2023-05-29T05:13:39;9.90;99.90
20881;DHT22;10600;53.096;8.802;2023-05-29T05:14:39;9.90;99.90
20881;DHT22;10600;53.096;8.802;2023-05-29T05:15:40;10.00;99.90
20881;DHT22;10600;53.096;8.802;2023-05-29T05:16:40;10.00;99.90
20881;DHT22;10600;53.096;8.802;2023-05-29T05:17:41;10.00;99.90
20881;DHT22;10600;53.096;8.802;2023-05-29T05:18:43;10.10;99.90
20881;DHT22;10600;53.096;8.802;2023-05-29T05:19:44;10.10;99.90
20881;DHT22;10600;53.096;8.802;2023-05-29T05:20:45;10.10;99.90
20881;DHT22;10600;53.096;8.802;2023-05-29T05:21:46;10.10;99.90
20881;DHT22;10600;53.096;8.802;2023-05-29T05:22:46;10.10;99.90
20881;DHT22;10600;53.096;8.802;2023-05-29T05:23:47;10.10;99.90
20881;DHT22;10600;53.096;8.802;2023-05-29T05:24:48;10.10;99.90
20881;DHT22;10600;53.096;8.802;2023-05-29T05:25:48;10.10;99.90
20881;DHT22;10600;53.096;8.802;2023-05-29T05:26:49;10.10;99.90
20881;DHT22;10600;53.096;8.802;2023-05-29T05:27:50;10.10;99.90
20881;DHT22;10600;53.096;8.802;2023-05-29T05:28:50;10.10;99.90
20881;DHT22;10600;53.096;8.802;2023-05-29T05:29:51;10.10;99.90
20881;DHT22;10600;53.096;8.802;2023-05-29T05:30:52;10.20;99.90
20881;DHT22;10600;53.096;8.802;2023-05-29T05:31:53;10.20;99.90
20881;DHT22;10600;53.096;8.802;2023-05-29T05:32:55;10.20;99.90
20881;DHT22;10600;53.096;8.802;2023-05-29T05:33:56;10.30;99.90
20881;DHT22;10600;53.096;8.802;2023-05-29T05:34:57;10.30;99.90
20881;DHT22;10600;53.096;8.802;2023-05-29T05:35:57;10.40;99.90
20881;DHT22;10600;53.096;8.802;2023-05-29T05:36:58;10.40;99.90
20881;DHT22;10600;53.096;8.802;2023-05-29T05:37:59;10.40;99.90
20881;DHT22;10600;53.096;8.802;2023-05-29T05:39:00;10.40;99.90
20881;DHT22;10600;53.096;8.802;2023-05-29T05:40:01;10.50;99.90
20881;DHT22;10600;53.096;8.802;2023-05-29T05:41:01;10.50;99.90
20881;DHT22;10600;53.096;8.802;2023-05-29T05:42:02;10.50;99.90
20881;DHT22;10600;53.096;8.802;2023-05-29T05:43:03;10.50;99.90
20881;DHT22;10600;53.096;8.802;2023-05-29T05:44:03;10.60;99.90
20881;DHT22;10600;53.096;8.802;2023-05-29T05:45:05;10.60;99.90
20881;DHT22;10600;53.096;8.802;2023-05-29T05:46:06;10.60;99.90
20881;DHT22;10600;53.096;8.802;2023-05-29T05:47:11;10.70;99.90
20881;DHT22;10600;53.096;8.802;2023-05-29T05:48:12;10.70;99.90
20881;DHT22;10600;53.096;8.802;2023-05-29T05:49:13;10.70;99.90
20881;DHT22;10600;53.096;8.802;2023-05-29T05:50:14;10.80;99.90
20881;DHT22;10600;53.096;8.802;2023-05-29T05:51:14;10.80;99.90
20881;DHT22;10600;53.096;8.802;2023-05-29T05:52:15;10.90;99.90
20881;DHT22;10600;53.096;8.802;2023-05-29T05:53:17;10.90;99.90
20881;DHT22;10600;53.096;8.802;2023-05-29T05:54:18;10.90;99.90
20881;DHT22;10600;53.096;8.802;2023-05-29T05:55:18;10.90;99.90
20881;DHT22;10600;53.096;8.802;2023-05-29T05:56:19;10.90;99.90
20881;DHT22;10600;53.096;8.802;2023-05-29T05:57:20;11.00;99.90
20881;DHT22;10600;53.096;8.802;2023-05-29T05:58:20;11.00;99.90
20881;DHT22;10600;53.096;8.802;2023-05-29T05:59:21;11.00;99.90
20881;DHT22;10600;53.096;8.802;2023-05-29T06:00:23;11.00;99.90
20881;DHT22;10600;53.096;8.802;2023-05-29T06:01:24;11.00;99.90
20881;DHT22;10600;53.096;8.802;2023-05-29T06:02:25;11.00;99.90
20881;DHT22;10600;53.096;8.802;2023-05-29T06:03:26;11.10;99.90
20881;DHT22;10600;53.096;8.802;2023-05-29T06:04:27;11.10;99.90
20881;DHT22;10600;53.096;8.802;2023-05-29T06:05:27;11.10;99.90
20881;DHT22;10600;53.096;8.802;2023-05-29T06:06:28;11.10;99.90
20881;DHT22;10600;53.096;8.802;2023-05-29T06:07:29;11.20;99.90
20881;DHT22;10600;53.096;8.802;2023-05-29T06:08:30;11.20;99.90
20881;DHT22;10600;53.096;8.802;2023-05-29T06:09:30;11.20;99.90
20881;DHT22;10600;53.096;8.802;2023-05-29T06:10:31;11.20;99.90
20881;DHT22;10600;53.096;8.802;2023-05-29T06:11:32;11.20;99.90
20881;DHT22;10600;53.096;8.802;2023-05-29T06:12:33;11.20;99.90
20881;DHT22;10600;53.096;8.802;2023-05-29T06:13:34;11.30;99.90
20881;DHT22;10600;53.096;8.802;2023-05-29T06:14:35;11.30;99.90
20881;DHT22;10600;53.096;8.802;2023-05-29T06:15:36;11.30;99.90
20881;DHT22;10600;53.096;8.802;2023-05-29T06:16:36;11.30;99.90
20881;DHT22;10600;53.096;8.802;2023-05-29T06:17:37;11.30;99.90
20881;DHT22;10600;53.096;8.802;2023-05-29T06:18:38;11.40;99.90
20881;DHT22;10600;53.096;8.802;2023-05-29T06:19:39;11.40;99.90
20881;DHT22;10600;53.096;8.802;2023-05-29T06:20:39;11.40;99.90
20881;DHT22;10600;53.096;8.802;2023-05-29T06:21:40;11.40;99.90
20881;DHT22;10600;53.096;8.802;2023-05-29T06:22:41;11.50;99.90
20881;DHT22;10600;53.096;8.802;2023-05-29T06:23:42;11.50;99.90
20881;DHT22;10600;53.096;8.802;2023-05-29T06:24:42;11.50;99.90
20881;DHT22;10600;53.096;8.802;2023-05-29T06:25:44;11.60;99.90
20881;DHT22;10600;53.096;8.802;2023-05-29T06:26:45;11.70;99.90
20881;DHT22;10600;53.096;8.802;2023-05-29T06:27:45;11.70;99.90
20881;DHT22;10600;53.096;8.802;2023-05-29T06:28:46;11.80;99.90
20881;DHT22;10600;53.096;8.802;2023-05-29T06:29:47;11.80;99.90
20881;DHT22;10600;53.096;8.802;2023-05-29T06:30:47;11.80;99.90
20881;DHT22;10600;53.096;8.802;2023-05-29T06:31:48;11.90;99.90
20881;DHT22;10600;53.096;8.802;2023-05-29T06:32:49;11.80;99.90
20881;DHT22;10600;53.096;8.802;2023-05-29T06:33:49;11.80;99.90
20881;DHT22;10600;53.096;8.802;2023-05-29T06:34:50;11.90;99.90
20881;DHT22;10600;53.096;8.802;2023-05-29T06:35:51;11.90;99.90
20881;DHT22;10600;53.096;8.802;2023-05-29T06:36:52;11.90;99.90
20881;DHT22;10600;53.096;8.802;2023-05-29T06:37:52;11.90;99.90